Time;durP1;ratioP1;P1;durP2;ratioP2;P2;SDS_P1;SDS_P2;PMS_P1;PMS_P2;Temp;Humidity;BMP_temperature;BMP_pressure;BME280_temperature;BME280_humidity;BME280_pressure;Samples;Min_cycle;Max_cycle;Signal;HPM_P1;HPM_P2
2023/04/16 00:00:55;;;;;;;5.22;3.42;;;26.40;99.90;;;;;;5012776;28;20116;-48
2023/04/16 00:03:22;;;;;;;6.53;3.53;;;26.40;99.90;;;;;;5017193;28;20018;-48
2023/04/16 00:05:48;;;;;;;5.37;3.13;;;26.40;99.90;;;;;;5012091;28;20058;-49
2023/04/16 00:08:14;;;;;;;5.97;3.50;;;26.40;99.90;;;;;;5015031;28;20291;-48
2023/04/16 00:10:40;;;;;;;6.28;3.75;;;26.40;99.90;;;;;;5011761;28;20021;-50
2023/04/16 00:13:06;;;;;;;6.53;3.85;;;26.40;99.90;;;;;;5011018;28;20083;-49
2023/04/16 00:15:32;;;;;;;5.45;3.65;;;26.40;99.90;;;;;;5010886;28;20037;-50
2023/04/16 00:17:57;;;;;;;5.15;3.95;;;26.40;99.90;;;;;;5010128;28;20037;-49
2023/04/16 00:20:23;;;;;;;4.75;3.60;;;26.40;99.90;;;;;;5011051;28;20368;-49
2023/04/16 00:22:50;;;;;;;6.93;4.18;;;26.40;99.90;;;;;;5012213;28;20471;-49
2023/04/16 00:25:16;;;;;;;8.52;4.35;;;26.50;99.90;;;;;;5010438;28;20030;-48
2023/04/16 00:27:41;;;;;;;6.55;4.00;;;26.40;99.90;;;;;;5009525;28;20026;-52
2023/04/16 00:30:08;;;;;;;16.63;4.13;;;26.40;99.90;;;;;;5017010;28;20419;-47
2023/04/16 00:32:36;;;;;;;4.63;3.83;;;26.40;99.90;;;;;;5021444;28;20486;-48
2023/04/16 00:35:02;;;;;;;5.40;3.25;;;26.40;99.90;;;;;;4997243;28;20091;-50
2023/04/16 00:37:27;;;;;;;7.50;4.03;;;26.40;99.90;;;;;;5031762;28;20025;-50
2023/04/16 00:39:53;;;;;;;6.15;4.35;;;26.40;99.90;;;;;;5032726;28;20033;-50
2023/04/16 00:42:19;;;;;;;9.15;4.28;;;26.40;99.90;;;;;;5032714;28;20104;-49
2023/04/16 00:44:45;;;;;;;6.85;3.70;;;26.40;99.90;;;;;;5032271;28;20060;-49
2023/04/16 00:47:11;;;;;;;6.00;3.78;;;26.40;99.90;;;;;;5032889;28;20105;-49
2023/04/16 00:49:36;;;;;;;5.00;3.45;;;26.40;99.90;;;;;;5032153;28;20068;-50
2023/04/16 00:52:02;;;;;;;7.75;4.25;;;26.40;99.90;;;;;;5032864;28;20423;-50
2023/04/16 00:54:29;;;;;;;7.53;4.15;;;26.40;99.90;;;;;;5029699;28;20041;-50
2023/04/16 00:56:55;;;;;;;7.73;4.17;;;26.40;99.90;;;;;;5022755;28;20045;-50
2023/04/16 00:59:21;;;;;;;8.27;4.50;;;26.40;99.90;;;;;;5033577;22;20398;-43
2023/04/16 01:01:47;;;;;;;6.38;4.15;;;26.50;99.90;;;;;;5011266;28;20101;-42
2023/04/16 01:04:13;;;;;;;8.13;4.47;;;26.50;99.90;;;;;;5012889;28;20018;-42
2023/04/16 01:06:39;;;;;;;7.20;4.75;;;26.40;99.90;;;;;;5012953;28;20479;-42
2023/04/16 01:09:04;;;;;;;6.18;4.60;;;26.40;99.90;;;;;;5012078;28;20091;-43
2023/04/16 01:11:30;;;;;;;7.65;4.57;;;26.40;99.90;;;;;;5013264;28;20514;-42
2023/04/16 01:13:56;;;;;;;7.97;5.10;;;26.40;99.90;;;;;;5011905;28;20360;-42
2023/04/16 01:16:22;;;;;;;7.90;4.72;;;26.40;99.90;;;;;;5011396;28;20061;-43
2023/04/16 01:18:48;;;;;;;7.32;4.90;;;26.50;99.90;;;;;;5012787;28;20026;-42
2023/04/16 01:21:13;;;;;;;7.75;4.97;;;26.40;99.90;;;;;;5012530;28;20030;-43
2023/04/16 01:23:39;;;;;;;7.22;4.72;;;26.40;99.90;;;;;;5012803;28;20049;-44
2023/04/16 01:26:05;;;;;;;9.10;6.45;;;26.40;99.90;;;;;;4993988;28;20025;-43
2023/04/16 01:28:31;;;;;;;9.50;5.40;;;26.40;99.90;;;;;;5009277;28;20036;-42
2023/04/16 01:30:56;;;;;;;8.00;5.20;;;26.40;99.90;;;;;;4993002;28;20037;-43
2023/04/16 01:33:22;;;;;;;10.30;4.82;;;26.40;99.90;;;;;;4992433;28;20083;-43
2023/04/16 01:35:48;;;;;;;6.68;5.00;;;26.40;99.90;;;;;;5012156;28;20112;-42
2023/04/16 01:38:14;;;;;;;8.13;5.50;;;26.40;99.90;;;;;;4994979;28;20376;-43
2023/04/16 01:40:39;;;;;;;7.03;5.18;;;26.40;99.90;;;;;;5012299;28;20088;-43
2023/04/16 01:43:05;;;;;;;5.03;4.43;;;26.40;99.90;;;;;;5012236;28;20502;-43
2023/04/16 01:45:32;;;;;;;6.53;4.55;;;26.40;99.90;;;;;;5012256;28;20025;-43
2023/04/16 01:47:57;;;;;;;6.17;4.47;;;26.40;99.90;;;;;;5012375;28;20022;-44
2023/04/16 01:50:23;;;;;;;5.97;4.25;;;26.40;99.90;;;;;;5012210;28;20129;-43
2023/04/16 01:52:49;;;;;;;5.45;4.50;;;26.40;99.90;;;;;;5012284;28;20030;-43
2023/04/16 01:55:15;;;;;;;7.57;4.57;;;26.40;99.90;;;;;;4994113;28;20040;-43
2023/04/16 01:57:41;;;;;;;6.72;4.78;;;26.40;99.90;;;;;;5012816;28;20026;-42
2023/04/16 02:00:08;;;;;;;5.55;4.10;;;26.40;99.90;;;;;;5012406;28;20033;-43
2023/04/16 02:02:34;;;;;;;8.45;4.70;;;26.40;99.90;;;;;;4994902;28;20034;-43
2023/04/16 02:05:01;;;;;;;4.82;3.58;;;26.40;99.90;;;;;;5012515;28;20033;-43
2023/04/16 02:07:27;;;;;;;6.05;3.70;;;26.40;99.90;;;;;;5012322;28;20026;-43
2023/04/16 02:09:52;;;;;;;6.32;3.72;;;26.30;99.90;;;;;;5012208;28;20499;-43
2023/04/16 02:12:19;;;;;;;6.95;4.05;;;26.30;99.90;;;;;;4994770;28;20049;-43
2023/04/16 02:14:45;;;;;;;6.25;4.00;;;26.30;99.90;;;;;;5012093;28;20092;-44
2023/04/16 02:17:10;;;;;;;5.85;4.25;;;26.40;99.90;;;;;;5012144;28;20076;-44
2023/04/16 02:19:36;;;;;;;4.22;3.40;;;26.30;99.90;;;;;;5012046;28;20026;-44
2023/04/16 02:22:02;;;;;;;4.55;3.25;;;26.30;99.90;;;;;;5012407;28;20022;-44
2023/04/16 02:24:28;;;;;;;5.10;3.72;;;26.30;99.90;;;;;;5012099;28;20048;-44
2023/04/16 02:26:54;;;;;;;4.78;3.40;;;26.30;99.90;;;;;;5012157;28;20033;-45
2023/04/16 02:29:21;;;;;;;7.07;3.70;;;26.30;99.90;;;;;;5012170;28;20030;-44
2023/04/16 02:31:48;;;;;;;4.83;3.60;;;26.30;99.90;;;;;;5011990;28;20030;-43
2023/04/16 02:34:13;;;;;;;6.78;3.53;;;26.30;99.90;;;;;;5011930;28;20026;-44
2023/04/16 02:36:39;;;;;;;4.70;3.30;;;26.30;99.90;;;;;;5011984;28;20037;-44
2023/04/16 02:39:05;;;;;;;5.35;3.65;;;26.30;99.90;;;;;;5012102;28;20029;-44
2023/04/16 02:41:31;;;;;;;5.88;3.30;;;26.30;99.90;;;;;;5013491;28;20104;-44
2023/04/16 02:43:57;;;;;;;7.00;4.25;;;26.30;99.90;;;;;;5015646;28;20084;-44
2023/04/16 02:46:22;;;;;;;4.90;3.42;;;26.30;99.90;;;;;;5015599;28;20084;-44
2023/04/16 02:48:48;;;;;;;5.28;3.20;;;26.30;99.90;;;;;;4997904;28;20082;-44
2023/04/16 02:51:14;;;;;;;8.60;5.20;;;26.30;99.90;;;;;;5015547;28;20109;-44
2023/04/16 02:53:44;;;;;;;4.85;2.90;;;26.30;99.90;;;;;;5015430;28;20060;-43
2023/04/16 02:56:10;;;;;;;6.95;2.58;;;26.30;99.90;;;;;;5015464;28;20050;-44
2023/04/16 02:58:36;;;;;;;5.38;2.92;;;26.30;99.90;;;;;;5016228;28;20107;-44
2023/04/16 03:01:01;;;;;;;3.85;3.10;;;26.20;99.90;;;;;;5015327;28;20034;-44
2023/04/16 03:03:27;;;;;;;4.65;3.08;;;26.20;99.90;;;;;;5015266;28;20022;-45
2023/04/16 03:05:53;;;;;;;3.78;2.95;;;26.20;99.90;;;;;;5015234;28;20467;-44
2023/04/16 03:08:19;;;;;;;3.92;2.88;;;26.20;99.90;;;;;;5015209;28;20060;-44
2023/04/16 03:10:45;;;;;;;4.15;2.38;;;26.20;99.90;;;;;;5015197;28;20033;-43
2023/04/16 03:13:10;;;;;;;4.00;2.88;;;26.20;99.90;;;;;;5015060;28;20140;-43
2023/04/16 03:15:36;;;;;;;4.63;3.30;;;26.20;99.90;;;;;;5015304;28;20037;-46
2023/04/16 03:18:02;;;;;;;2.97;2.55;;;26.20;99.90;;;;;;5014873;28;20033;-43
2023/04/16 03:20:28;;;;;;;6.00;3.05;;;26.20;99.90;;;;;;5015063;28;20065;-43
2023/04/16 03:22:53;;;;;;;4.18;2.40;;;26.10;99.90;;;;;;5014999;28;20029;-43
2023/04/16 03:25:20;;;;;;;2.90;2.35;;;26.10;99.90;;;;;;5014903;28;20055;-44
2023/04/16 03:27:45;;;;;;;3.47;2.53;;;26.10;99.90;;;;;;5014754;28;20372;-44
2023/04/16 03:30:12;;;;;;;5.15;2.95;;;26.10;99.90;;;;;;4997142;28;20030;-44
2023/04/16 03:32:39;;;;;;;3.42;2.60;;;26.10;99.90;;;;;;5014703;28;20078;-44
2023/04/16 03:35:05;;;;;;;3.00;2.47;;;26.10;99.90;;;;;;5014939;28;20041;-43
2023/04/16 03:37:32;;;;;;;5.20;3.05;;;26.10;99.90;;;;;;5014551;28;20546;-44
2023/04/16 03:39:58;;;;;;;3.63;2.58;;;26.00;99.90;;;;;;5014522;28;20136;-43
2023/04/16 03:42:23;;;;;;;3.67;2.22;;;26.00;99.90;;;;;;5014527;28;20167;-43
2023/04/16 03:44:50;;;;;;;4.68;2.97;;;26.00;99.90;;;;;;5014533;28;20361;-43
2023/04/16 03:47:15;;;;;;;4.90;2.60;;;26.10;99.90;;;;;;5014573;28;20480;-43
2023/04/16 03:49:41;;;;;;;5.97;2.42;;;26.00;99.90;;;;;;5014293;28;20084;-43
2023/04/16 03:52:07;;;;;;;3.03;2.20;;;26.00;99.90;;;;;;5014668;28;20029;-43
2023/04/16 03:54:33;;;;;;;4.22;2.35;;;26.00;99.90;;;;;;5014304;28;20038;-43
2023/04/16 03:56:58;;;;;;;3.08;2.10;;;26.00;99.90;;;;;;5014330;28;20026;-43
2023/04/16 03:59:24;;;;;;;3.47;2.42;;;26.00;99.90;;;;;;4997101;28;20120;-43
2023/04/16 04:01:50;;;;;;;4.07;2.25;;;25.90;99.90;;;;;;4997112;28;20057;-43
2023/04/16 04:04:16;;;;;;;3.70;2.47;;;25.90;99.90;;;;;;5014166;28;20018;-43
2023/04/16 04:06:43;;;;;;;2.50;2.30;;;25.90;99.90;;;;;;5014151;28;20120;-43
2023/04/16 04:09:09;;;;;;;5.50;2.17;;;25.90;99.90;;;;;;5013300;28;20018;-43
2023/04/16 04:11:35;;;;;;;2.00;1.80;;;25.90;99.90;;;;;;5012653;28;20387;-43
2023/04/16 04:14:01;;;;;;;3.08;2.05;;;25.90;99.90;;;;;;5012777;28;20392;-43
2023/04/16 04:16:26;;;;;;;4.55;2.38;;;25.90;99.90;;;;;;5012409;28;20041;-43
2023/04/16 04:18:52;;;;;;;2.83;1.98;;;25.90;99.90;;;;;;5013921;28;20018;-44
2023/04/16 04:21:18;;;;;;;2.38;1.92;;;25.90;99.90;;;;;;5013674;28;20036;-44
2023/04/16 04:23:44;;;;;;;4.82;2.72;;;25.80;99.90;;;;;;5015342;28;20101;-44
2023/04/16 04:26:10;;;;;;;4.85;2.45;;;25.90;99.90;;;;;;5017958;28;20026;-44
2023/04/16 04:28:35;;;;;;;3.67;2.10;;;25.80;99.90;;;;;;4999505;28;20384;-44
2023/04/16 04:31:01;;;;;;;3.03;2.10;;;25.80;99.90;;;;;;5033118;28;20084;-44
2023/04/16 04:33:27;;;;;;;2.72;2.10;;;25.80;99.90;;;;;;5033104;28;20032;-44
2023/04/16 04:35:54;;;;;;;2.60;1.88;;;25.80;99.90;;;;;;5024052;28;20074;-44
2023/04/16 04:38:20;;;;;;;2.92;1.77;;;25.80;99.90;;;;;;5029048;28;20014;-44
2023/04/16 04:40:47;;;;;;;2.10;1.90;;;25.80;99.90;;;;;;5027420;28;20037;-44
2023/04/16 04:43:13;;;;;;;2.63;2.00;;;25.80;99.90;;;;;;5013179;28;20129;-44
2023/04/16 04:45:39;;;;;;;2.92;1.83;;;25.80;99.90;;;;;;5019081;28;20478;-44
2023/04/16 04:48:05;;;;;;;2.15;1.73;;;25.80;99.90;;;;;;5022008;28;20026;-44
2023/04/16 04:50:31;;;;;;;2.03;1.63;;;25.80;99.90;;;;;;5030500;28;20421;-43
2023/04/16 04:52:57;;;;;;;2.88;1.80;;;25.80;99.90;;;;;;5032860;28;20101;-44
2023/04/16 04:55:23;;;;;;;2.83;2.00;;;25.80;99.90;;;;;;5029535;28;20091;-44
2023/04/16 04:57:49;;;;;;;3.92;2.45;;;25.80;99.90;;;;;;5012428;28;20057;-43
2023/04/16 05:00:15;;;;;;;4.30;1.92;;;25.80;99.90;;;;;;5013036;28;20045;-43
2023/04/16 05:02:41;;;;;;;4.53;1.90;;;25.80;99.90;;;;;;4995081;28;20018;-43
2023/04/16 05:05:07;;;;;;;2.60;1.42;;;25.80;99.90;;;;;;5012360;28;20029;-44
2023/04/16 05:07:33;;;;;;;2.53;1.80;;;25.80;99.90;;;;;;5025869;28;20099;-43
2023/04/16 05:09:59;;;;;;;2.10;1.48;;;25.80;99.90;;;;;;5012485;28;20464;-43
2023/04/16 05:12:25;;;;;;;3.03;2.08;;;25.80;99.90;;;;;;5012364;28;20068;-44
2023/04/16 05:14:51;;;;;;;4.00;2.03;;;25.80;99.90;;;;;;5012672;28;20048;-43
2023/04/16 05:17:17;;;;;;;2.80;1.75;;;25.80;99.90;;;;;;5012542;28;20386;-44
2023/04/16 05:19:42;;;;;;;3.63;1.92;;;25.80;99.90;;;;;;5001757;28;20022;-44
2023/04/16 05:22:08;;;;;;;2.33;2.03;;;25.70;99.90;;;;;;5032250;28;20037;-44
2023/04/16 05:24:34;;;;;;;2.97;1.73;;;25.70;99.90;;;;;;5032403;28;20529;-44
2023/04/16 05:27:00;;;;;;;4.30;1.80;;;25.80;99.90;;;;;;5018513;28;20383;-44
2023/04/16 05:29:26;;;;;;;3.28;1.77;;;25.70;99.90;;;;;;5025432;28;20534;-44
2023/04/16 05:31:52;;;;;;;1.92;1.52;;;25.70;99.90;;;;;;5028104;28;20502;-44
2023/04/16 05:34:17;;;;;;;3.45;2.15;;;25.70;99.90;;;;;;5012332;28;20549;-44
2023/04/16 05:36:43;;;;;;;3.50;1.70;;;25.70;99.90;;;;;;5012364;28;20076;-43
2023/04/16 05:39:09;;;;;;;3.40;1.70;;;25.70;99.90;;;;;;5012483;28;20026;-43
2023/04/16 05:41:35;;;;;;;2.88;1.85;;;25.70;99.90;;;;;;5014014;28;20101;-44
2023/04/16 05:44:01;;;;;;;3.90;1.73;;;25.70;99.90;;;;;;5031892;28;20079;-43
2023/04/16 05:46:26;;;;;;;4.00;2.08;;;25.70;99.90;;;;;;5018318;28;20065;-44
2023/04/16 05:48:52;;;;;;;2.88;2.00;;;25.70;99.90;;;;;;5019606;28;20416;-44
2023/04/16 05:51:18;;;;;;;3.10;1.92;;;25.70;99.90;;;;;;5017940;28;20376;-44
2023/04/16 05:53:44;;;;;;;4.35;1.60;;;25.70;99.90;;;;;;5012371;28;20010;-44
2023/04/16 05:56:10;;;;;;;2.00;1.40;;;25.70;99.90;;;;;;5023904;28;20491;-44
2023/04/16 05:58:36;;;;;;;2.47;1.50;;;25.60;99.90;;;;;;5027546;28;20034;-44
2023/04/16 06:01:02;;;;;;;3.15;1.55;;;25.70;99.90;;;;;;5005214;28;20078;-44
2023/04/16 06:03:28;;;;;;;2.30;1.73;;;25.70;99.90;;;;;;5031431;28;20040;-44
2023/04/16 06:05:53;;;;;;;3.20;1.75;;;25.60;99.90;;;;;;5022858;28;20033;-44
2023/04/16 06:08:19;;;;;;;3.40;2.20;;;25.70;99.90;;;;;;4996599;28;20499;-44
2023/04/16 06:10:46;;;;;;;1.73;1.55;;;25.60;99.90;;;;;;5022881;28;20430;-44
2023/04/16 06:13:12;;;;;;;2.83;1.80;;;25.60;99.90;;;;;;5012773;28;20047;-44
2023/04/16 06:15:38;;;;;;;2.03;1.60;;;25.60;99.90;;;;;;5014275;28;20091;-44
2023/04/16 06:18:03;;;;;;;2.55;1.45;;;25.70;99.90;;;;;;5035722;28;20100;-43
2023/04/16 06:20:29;;;;;;;4.10;1.80;;;25.60;99.90;;;;;;5016278;28;20510;-44
2023/04/16 06:22:55;;;;;;;3.83;1.83;;;25.60;99.90;;;;;;5028402;28;20112;-44
2023/04/16 06:25:21;;;;;;;2.72;1.77;;;25.60;99.90;;;;;;5013381;28;20117;-44
2023/04/16 06:27:47;;;;;;;2.35;1.65;;;25.60;99.90;;;;;;5015885;28;20415;-44
2023/04/16 06:30:14;;;;;;;2.95;1.95;;;25.60;99.90;;;;;;5034868;28;20026;-44
2023/04/16 06:32:41;;;;;;;3.20;1.90;;;25.60;99.90;;;;;;5022715;28;20418;-44
2023/04/16 06:35:07;;;;;;;2.55;1.63;;;25.60;99.90;;;;;;5015309;28;20104;-44
2023/04/16 06:37:33;;;;;;;2.88;1.60;;;25.70;99.90;;;;;;5015687;28;20104;-43
2023/04/16 06:39:59;;;;;;;2.97;2.08;;;25.60;99.90;;;;;;5030443;28;20109;-44
2023/04/16 06:42:24;;;;;;;2.60;1.83;;;25.60;99.90;;;;;;5015661;28;20026;-44
2023/04/16 06:44:50;;;;;;;2.67;1.80;;;25.60;99.90;;;;;;5019139;28;20072;-44
2023/04/16 06:47:16;;;;;;;2.20;1.75;;;25.60;99.90;;;;;;5026427;28;20034;-44
2023/04/16 06:49:42;;;;;;;2.90;2.08;;;25.60;99.90;;;;;;5017526;28;20032;-44
2023/04/16 06:52:08;;;;;;;2.28;1.55;;;25.60;99.90;;;;;;5026187;28;20030;-44
2023/04/16 06:54:34;;;;;;;2.60;2.40;;;25.70;99.90;;;;;;5015722;28;20029;-44
2023/04/16 06:56:59;;;;;;;2.55;1.70;;;25.70;99.90;;;;;;5034970;28;20034;-44
2023/04/16 06:59:25;;;;;;;2.38;1.50;;;25.70;99.90;;;;;;5020569;28;20049;-44
2023/04/16 07:01:51;;;;;;;3.90;1.98;;;25.70;99.90;;;;;;5014963;28;20034;-44
2023/04/16 07:04:17;;;;;;;2.22;1.80;;;25.70;99.90;;;;;;5015337;28;20056;-44
2023/04/16 07:06:43;;;;;;;2.05;1.75;;;25.70;99.90;;;;;;5010411;28;20050;-44
2023/04/16 07:09:08;;;;;;;1.73;1.40;;;25.70;99.90;;;;;;5005970;28;20022;-44
2023/04/16 07:11:34;;;;;;;2.28;1.60;;;25.70;99.90;;;;;;5032456;28;20071;-44
2023/04/16 07:14:00;;;;;;;2.67;1.60;;;25.70;99.90;;;;;;5025109;28;20388;-44
2023/04/16 07:16:26;;;;;;;2.45;1.80;;;25.70;99.90;;;;;;5028018;28;20037;-44
2023/04/16 07:18:52;;;;;;;2.22;1.80;;;25.70;99.90;;;;;;5015004;28;20021;-45
2023/04/16 07:21:17;;;;;;;3.08;1.90;;;25.70;99.90;;;;;;5014806;28;20064;-44
2023/04/16 07:23:43;;;;;;;2.67;1.75;;;25.70;99.90;;;;;;5014635;28;20380;-44
2023/04/16 07:26:10;;;;;;;3.47;1.70;;;25.70;99.90;;;;;;5014656;28;20022;-45
2023/04/16 07:28:36;;;;;;;2.72;1.85;;;25.70;99.90;;;;;;5015350;28;20022;-44
2023/04/16 07:31:02;;;;;;;2.97;1.80;;;25.80;99.90;;;;;;5034513;28;20509;-44
2023/04/16 07:33:28;;;;;;;3.85;1.90;;;25.80;99.90;;;;;;5029451;28;20578;-44
2023/04/16 07:35:54;;;;;;;2.15;1.70;;;25.70;99.90;;;;;;5025949;28;20041;-44
2023/04/16 07:38:19;;;;;;;2.28;1.60;;;25.80;99.90;;;;;;5016012;28;20392;-44
2023/04/16 07:40:45;;;;;;;2.53;1.73;;;25.80;99.90;;;;;;5014485;28;20036;-44
2023/04/16 07:43:12;;;;;;;2.25;1.60;;;25.80;99.90;;;;;;4999614;28;20152;-44
2023/04/16 07:45:38;;;;;;;2.97;1.85;;;25.80;99.90;;;;;;5006422;28;20435;-44
2023/04/16 07:48:04;;;;;;;2.20;1.60;;;25.80;99.90;;;;;;5016138;28;20032;-44
2023/04/16 07:50:30;;;;;;;3.22;1.70;;;25.80;99.90;;;;;;5007691;28;20117;-44
2023/04/16 07:52:55;;;;;;;2.67;1.90;;;25.80;99.90;;;;;;5013822;28;20551;-45
2023/04/16 07:55:21;;;;;;;2.22;1.55;;;25.80;99.90;;;;;;5014338;28;20030;-44
2023/04/16 07:57:47;;;;;;;2.47;1.70;;;25.80;99.90;;;;;;5013863;28;20048;-44
2023/04/16 08:00:13;;;;;;;2.75;1.38;;;25.80;99.90;;;;;;5028553;28;20034;-44
2023/04/16 08:02:40;;;;;;;3.72;1.77;;;25.80;99.90;;;;;;5013976;28;20547;-44
2023/04/16 08:05:06;;;;;;;2.70;1.73;;;25.80;99.90;;;;;;5032407;28;20029;-44
2023/04/16 08:07:32;;;;;;;2.08;1.55;;;25.80;99.90;;;;;;5023015;28;20529;-44
2023/04/16 08:09:58;;;;;;;2.95;1.77;;;25.80;99.90;;;;;;5027067;28;20030;-44
2023/04/16 08:12:23;;;;;;;2.30;1.65;;;25.80;99.90;;;;;;5024534;28;20104;-43
2023/04/16 08:14:49;;;;;;;2.97;1.67;;;25.80;99.90;;;;;;5020490;28;20448;-44
2023/04/16 08:17:15;;;;;;;2.55;1.77;;;25.90;99.90;;;;;;5023310;28;20039;-44
2023/04/16 08:19:43;;;;;;;4.00;1.77;;;25.90;99.90;;;;;;5013412;28;20025;-43
2023/04/16 08:22:10;;;;;;;2.90;2.00;;;25.90;99.90;;;;;;5020686;28;20037;-43
2023/04/16 08:24:36;;;;;;;3.85;1.63;;;25.90;99.90;;;;;;5030394;28;20030;-43
2023/04/16 08:27:03;;;;;;;3.85;1.60;;;25.90;99.90;;;;;;5032351;28;20112;-43
2023/04/16 08:29:28;;;;;;;2.22;1.70;;;25.90;99.90;;;;;;5026807;28;20018;-43
2023/04/16 08:31:55;;;;;;;7.20;2.25;;;25.90;99.90;;;;;;5002626;28;20426;-44
2023/04/16 08:34:20;;;;;;;6.47;2.00;;;25.90;99.90;;;;;;5033474;28;20505;-44
2023/04/16 08:36:46;;;;;;;8.40;1.60;;;25.90;99.90;;;;;;5019198;28;20030;-44
2023/04/16 08:39:12;;;;;;;6.28;2.75;;;25.90;99.90;;;;;;5029947;28;20087;-44
2023/04/16 08:41:42;;;;;;;4.55;2.05;;;25.90;99.90;;;;;;5023134;28;20029;-44
2023/04/16 08:44:12;;;;;;;9.00;2.58;;;25.90;99.90;;;;;;5012600;28;20030;-44
2023/04/16 08:46:40;;;;;;;7.85;2.22;;;25.80;99.90;;;;;;5032984;28;20459;-44
2023/04/16 08:49:07;;;;;;;6.88;1.90;;;25.80;99.90;;;;;;5028569;28;20040;-45
2023/04/16 08:51:37;;;;;;;6.83;1.57;;;25.80;99.90;;;;;;5032805;28;20029;-45
2023/04/16 08:54:08;;;;;;;7.20;1.45;;;25.80;99.90;;;;;;5032578;28;20497;-45
2023/04/16 08:56:35;;;;;;;3.78;1.17;;;25.80;99.90;;;;;;5032883;28;20098;-45
2023/04/16 08:59:04;;;;;;;4.70;1.67;;;25.80;99.90;;;;;;5032326;28;20112;-45
2023/04/16 09:01:32;;;;;;;5.50;2.05;;;25.80;99.90;;;;;;5032351;28;20060;-45
2023/04/16 09:04:01;;;;;;;7.07;1.70;;;25.70;99.90;;;;;;5031806;28;20029;-44
2023/04/16 09:06:27;;;;;;;13.00;2.53;;;25.70;99.90;;;;;;5025722;28;20029;-44
2023/04/16 09:08:54;;;;;;;6.28;2.53;;;25.70;99.90;;;;;;4995191;28;20029;-44
2023/04/16 09:11:20;;;;;;;6.75;1.80;;;25.70;99.90;;;;;;5032472;28;20505;-44
2023/04/16 09:13:46;;;;;;;27.83;3.25;;;25.70;99.90;;;;;;5019081;28;20109;-44
2023/04/16 09:16:13;;;;;;;115.75;8.07;;;25.60;99.90;;;;;;5012027;28;20476;-43
2023/04/16 09:18:40;;;;;;;33.63;3.65;;;25.60;99.90;;;;;;5012688;28;20037;-44
2023/04/16 09:21:09;;;;;;;15.35;2.67;;;25.60;99.90;;;;;;5030842;28;20112;-44
2023/04/16 09:23:37;;;;;;;28.98;4.25;;;25.50;99.90;;;;;;5004131;28;20018;-44
2023/04/16 09:26:03;;;;;;;;;;;25.50;99.90;;;;;;5012748;28;20485;-44
2023/04/16 09:28:45;;;;;;;16.92;2.63;;;25.50;99.90;;;;;;5017338;28;20367;-44
2023/04/16 09:31:18;;;;;;;15.38;2.25;;;25.50;99.90;;;;;;5013453;28;20052;-46
2023/04/16 09:34:07;;;;;;;11.57;2.78;;;25.40;99.90;;;;;;5018817;28;20585;-45
2023/04/16 09:36:34;;;;;;;27.35;3.65;;;25.40;99.90;;;;;;5011887;28;20116;-43
2023/04/16 09:39:01;;;;;;;39.73;3.70;;;25.40;99.90;;;;;;4994739;28;20028;-44
2023/04/16 09:41:29;;;;;;;15.70;2.70;;;25.40;99.90;;;;;;5001675;28;20259;-44
2023/04/16 09:44:00;;;;;;;21.70;3.28;;;25.40;99.90;;;;;;5030764;28;20021;-44
2023/04/16 09:46:40;;;;;;;16.52;2.30;;;25.40;99.90;;;;;;5016988;28;20483;-44
2023/04/16 09:49:17;;;;;;;18.20;2.97;;;25.40;99.90;;;;;;5030952;28;20026;-43
2023/04/16 09:51:45;;;;;;;16.45;3.33;;;25.40;99.90;;;;;;5031687;28;20025;-44
2023/04/16 09:54:10;;;;;;;;;;;25.40;99.90;;;;;;5032367;28;20036;-44
2023/04/16 09:56:45;;;;;;;13.23;2.63;;;25.40;99.90;;;;;;5031644;28;19917;-43
2023/04/16 09:59:21;;;;;;;16.83;3.50;;;25.40;99.90;;;;;;5024696;28;20447;-44
2023/04/16 10:01:48;;;;;;;11.80;3.35;;;25.40;99.90;;;;;;5005816;28;20033;-45
2023/04/16 10:04:15;;;;;;;21.48;3.92;;;25.40;99.90;;;;;;5011986;28;20017;-44
2023/04/16 10:06:41;;;;;;;17.55;3.88;;;25.30;99.90;;;;;;5020409;28;20061;-44
2023/04/16 10:09:10;;;;;;;10.38;4.30;;;25.30;99.90;;;;;;5018325;28;20029;-44
2023/04/16 10:11:36;;;;;;;17.38;3.78;;;25.30;99.90;;;;;;5012076;28;20022;-44
2023/04/16 10:14:02;;;;;;;18.63;3.40;;;25.30;99.90;;;;;;5013123;28;20034;-44
2023/04/16 10:16:28;;;;;;;19.27;4.18;;;25.30;99.90;;;;;;5022827;28;20033;-44
2023/04/16 10:18:55;;;;;;;24.15;3.75;;;25.30;99.90;;;;;;5027676;28;20026;-44
2023/04/16 10:21:21;;;;;;;13.30;2.70;;;25.30;99.90;;;;;;5031093;28;20033;-44
2023/04/16 10:23:48;;;;;;;13.25;2.88;;;25.30;99.90;;;;;;5020824;28;20033;-44
2023/04/16 10:26:16;;;;;;;11.70;2.27;;;25.40;99.90;;;;;;4994407;28;20033;-44
2023/04/16 10:28:44;;;;;;;18.17;2.53;;;25.40;99.90;;;;;;5016808;28;20316;-44
2023/04/16 10:31:11;;;;;;;16.10;2.70;;;25.40;99.90;;;;;;5032126;28;20025;-44
2023/04/16 10:33:40;;;;;;;7.55;1.90;;;25.40;99.90;;;;;;5030760;28;20104;-44
2023/04/16 10:36:10;;;;;;;9.23;2.13;;;25.40;99.90;;;;;;5023957;28;20034;-44
2023/04/16 10:38:55;;;;;;;7.18;2.13;;;25.40;99.90;;;;;;5031408;28;20025;-44
2023/04/16 10:41:21;;;;;;;12.63;3.22;;;25.40;99.90;;;;;;5000315;28;20163;-44
2023/04/16 10:43:50;;;;;;;12.07;3.10;;;25.40;99.90;;;;;;5020415;28;20022;-45
2023/04/16 10:46:45;;;;;;;14.32;3.92;;;25.50;99.90;;;;;;5024602;28;20021;-44
2023/04/16 10:49:24;;;;;;;12.27;2.50;;;25.50;99.90;;;;;;5017628;28;20057;-44
2023/04/16 10:51:57;;;;;;;9.32;3.40;;;25.50;99.90;;;;;;5031041;28;20028;-43
2023/04/16 10:54:25;;;;;;;14.65;4.18;;;25.50;99.90;;;;;;5017557;28;20033;-44
2023/04/16 10:56:52;;;;;;;9.32;3.40;;;25.50;99.90;;;;;;5013613;28;20025;-44
2023/04/16 10:59:20;;;;;;;10.70;2.85;;;25.50;99.90;;;;;;5009125;28;20049;-44
2023/04/16 11:01:49;;;;;;;12.65;2.92;;;25.60;99.90;;;;;;5012041;28;20476;-44
2023/04/16 11:04:23;;;;;;;8.98;2.13;;;25.60;99.90;;;;;;5018804;28;20479;-44
2023/04/16 11:07:15;;;;;;;12.52;2.35;;;25.60;99.90;;;;;;5023543;28;20025;-44
2023/04/16 11:09:45;;;;;;;7.93;1.67;;;25.60;99.90;;;;;;5015591;28;20052;-44
2023/04/16 11:12:17;;;;;;;12.52;2.05;;;25.60;99.90;;;;;;5034482;28;20060;-44
2023/04/16 11:14:46;;;;;;;9.40;2.38;;;25.70;99.90;;;;;;5033853;28;20014;-43
2023/04/16 11:17:12;;;;;;;10.32;1.90;;;25.70;99.90;;;;;;5034111;28;20107;-44
2023/04/16 11:19:38;;;;;;;13.82;3.10;;;25.70;99.90;;;;;;5034230;28;20510;-44
2023/04/16 11:22:04;;;;;;;10.15;2.58;;;25.70;99.90;;;;;;5033860;28;20103;-44
2023/04/16 11:24:31;;;;;;;13.52;3.00;;;25.70;99.90;;;;;;5028940;28;20037;-42
2023/04/16 11:26:57;;;;;;;12.17;2.87;;;25.80;99.90;;;;;;5034627;28;20591;-45
2023/04/16 11:29:23;;;;;;;13.23;3.20;;;25.80;99.90;;;;;;5032747;28;20353;-44
2023/04/16 11:31:50;;;;;;;9.00;2.13;;;25.80;99.90;;;;;;5034372;28;20472;-44
2023/04/16 11:34:17;;;;;;;15.18;2.92;;;25.80;99.90;;;;;;5032411;28;20029;-44
2023/04/16 11:36:44;;;;;;;;;;;25.80;99.90;;;;;;5029144;28;20037;-45
2023/04/16 11:39:09;;;;;;;14.15;3.90;;;25.90;99.90;;;;;;5034414;28;20338;-44
2023/04/16 11:41:42;;;;;;;9.32;3.33;;;25.90;99.90;;;;;;5003007;28;20113;-42
2023/04/16 11:44:27;;;;;;;15.60;4.18;;;25.90;99.90;;;;;;5026083;28;20375;-42
2023/04/16 11:46:53;;;;;;;13.32;2.65;;;25.90;99.90;;;;;;5014174;28;20026;-44
2023/04/16 11:49:31;;;;;;;12.90;2.90;;;25.90;99.90;;;;;;5014094;28;20525;-44
2023/04/16 11:51:57;;;;;;;12.23;3.35;;;26.00;99.90;;;;;;5013978;28;20026;-41
2023/04/16 11:54:24;;;;;;;13.63;2.83;;;26.00;99.90;;;;;;5024442;28;20026;-43
2023/04/16 11:56:52;;;;;;;9.98;2.80;;;26.00;99.90;;;;;;5033835;28;20030;-44
2023/04/16 11:59:19;;;;;;;9.98;2.60;;;26.00;99.90;;;;;;5030816;28;20470;-44
2023/04/16 12:01:50;;;;;;;12.43;3.60;;;26.10;99.90;;;;;;5033889;28;20017;-45
2023/04/16 12:04:19;;;;;;;15.30;2.20;;;26.00;99.90;;;;;;5004994;28;20062;-44
2023/04/16 12:07:13;;;;;;;17.50;3.47;;;26.10;99.90;;;;;;4989076;28;20030;-44
2023/04/16 12:09:43;;;;;;;14.02;4.15;;;26.10;99.90;;;;;;5006451;28;20482;-44
2023/04/16 12:12:29;;;;;;;16.02;3.63;;;26.10;99.90;;;;;;4996873;28;20041;-42
2023/04/16 12:14:56;;;;;;;15.53;3.67;;;26.20;99.90;;;;;;4998327;28;20073;-45
2023/04/16 12:17:22;;;;;;;12.50;2.97;;;26.20;99.90;;;;;;4988004;28;21272;-44
2023/04/16 12:19:54;;;;;;;23.05;4.22;;;26.20;99.90;;;;;;5003941;28;20773;-42
2023/04/16 12:22:34;;;;;;;12.63;3.45;;;26.20;99.90;;;;;;4997856;28;20076;-42
2023/04/16 12:25:02;;;;;;;17.27;3.05;;;26.20;99.90;;;;;;5002771;28;20105;-43
2023/04/16 12:28:00;;;;;;;;;;;26.20;99.90;;;;;;4996799;28;20379;-43
2023/04/16 12:30:26;;;;;;;12.25;2.78;;;26.20;99.90;;;;;;4989175;28;19951;-44
2023/04/16 12:33:15;;;;;;;18.27;3.47;;;26.30;99.90;;;;;;4997807;28;20026;-44
2023/04/16 12:35:42;;;;;;;15.68;2.65;;;26.20;99.90;;;;;;5009000;28;20120;-44
2023/04/16 12:38:09;;;;;;;16.38;3.55;;;26.20;99.90;;;;;;4994846;28;20024;-44
2023/04/16 12:40:35;;;;;;;13.23;3.47;;;26.20;99.90;;;;;;4997444;28;20029;-44
2023/04/16 12:43:01;;;;;;;16.67;2.90;;;26.20;99.90;;;;;;4995389;28;20049;-44
2023/04/16 12:45:27;;;;;;;15.10;2.63;;;26.20;99.90;;;;;;4978442;28;20621;-45